sensor_id;sensor_type;location;lat;lon;timestamp;P1;durP1;ratioP1;P2;durP2;ratioP2
37275;SDS011;23166;51.150;21.620;2022-08-05T00:01:49;6.75;;;4.00;;
37275;SDS011;23166;51.150;21.620;2022-08-05T00:04:16;9.45;;;4.70;;
37275;SDS011;23166;51.150;21.620;2022-08-05T00:06:43;12.25;;;4.87;;
37275;SDS011;23166;51.150;21.620;2022-08-05T00:09:09;6.55;;;4.53;;
37275;SDS011;23166;51.150;21.620;2022-08-05T00:11:36;10.25;;;4.47;;
37275;SDS011;23166;51.150;21.620;2022-08-05T00:14:02;11.78;;;4.35;;
37275;SDS011;23166;51.150;21.620;2022-08-05T00:16:29;12.00;;;4.65;;
37275;SDS011;23166;51.150;21.620;2022-08-05T00:18:55;7.47;;;4.65;;
37275;SDS011;23166;51.150;21.620;2022-08-05T00:21:22;9.73;;;4.80;;
37275;SDS011;23166;51.150;21.620;2022-08-05T00:23:48;6.75;;;3.65;;
37275;SDS011;23166;51.150;21.620;2022-08-05T00:26:15;7.90;;;5.15;;
37275;SDS011;23166;51.150;21.620;2022-08-05T00:31:09;8.38;;;4.70;;
37275;SDS011;23166;51.150;21.620;2022-08-05T00:33:35;7.08;;;4.03;;
37275;SDS011;23166;51.150;21.620;2022-08-05T00:36:02;10.93;;;4.55;;
37275;SDS011;23166;51.150;21.620;2022-08-05T00:38:29;9.88;;;5.47;;
37275;SDS011;23166;51.150;21.620;2022-08-05T00:40:56;11.75;;;5.05;;
37275;SDS011;23166;51.150;21.620;2022-08-05T00:43:26;9.25;;;4.20;;
37275;SDS011;23166;51.150;21.620;2022-08-05T00:45:55;6.05;;;3.70;;
37275;SDS011;23166;51.150;21.620;2022-08-05T00:48:21;5.78;;;4.47;;
37275;SDS011;23166;51.150;21.620;2022-08-05T00:50:49;7.40;;;4.62;;
37275;SDS011;23166;51.150;21.620;2022-08-05T00:53:21;11.93;;;4.30;;
37275;SDS011;23166;51.150;21.620;2022-08-05T00:55:46;7.42;;;3.85;;
37275;SDS011;23166;51.150;21.620;2022-08-05T00:58:13;9.15;;;3.87;;
37275;SDS011;23166;51.150;21.620;2022-08-05T01:00:43;9.30;;;4.17;;
37275;SDS011;23166;51.150;21.620;2022-08-05T01:03:11;5.85;;;4.12;;
37275;SDS011;23166;51.150;21.620;2022-08-05T01:05:37;7.30;;;3.92;;
37275;SDS011;23166;51.150;21.620;2022-08-05T01:08:04;11.22;;;4.08;;
37275;SDS011;23166;51.150;21.620;2022-08-05T01:10:35;7.17;;;3.50;;
37275;SDS011;23166;51.150;21.620;2022-08-05T01:13:05;6.50;;;3.47;;
37275;SDS011;23166;51.150;21.620;2022-08-05T01:15:38;9.45;;;3.90;;
37275;SDS011;23166;51.150;21.620;2022-08-05T01:18:08;6.85;;;3.65;;
37275;SDS011;23166;51.150;21.620;2022-08-05T01:20:42;4.45;;;3.08;;
37275;SDS011;23166;51.150;21.620;2022-08-05T01:25:52;5.70;;;3.60;;
37275;SDS011;23166;51.150;21.620;2022-08-05T01:31:19;7.37;;;3.90;;
37275;SDS011;23166;51.150;21.620;2022-08-05T01:34:13;8.65;;;4.05;;
37275;SDS011;23166;51.150;21.620;2022-08-05T01:36:39;8.05;;;4.05;;
37275;SDS011;23166;51.150;21.620;2022-08-05T01:39:05;8.10;;;4.05;;
37275;SDS011;23166;51.150;21.620;2022-08-05T01:41:33;4.33;;;3.70;;
37275;SDS011;23166;51.150;21.620;2022-08-05T01:44:01;6.65;;;4.22;;
37275;SDS011;23166;51.150;21.620;2022-08-05T01:46:28;15.83;;;4.08;;
37275;SDS011;23166;51.150;21.620;2022-08-05T01:48:57;5.83;;;3.65;;
37275;SDS011;23166;51.150;21.620;2022-08-05T01:51:25;5.78;;;4.33;;
37275;SDS011;23166;51.150;21.620;2022-08-05T01:53:53;4.95;;;3.80;;
37275;SDS011;23166;51.150;21.620;2022-08-05T01:56:21;6.40;;;4.58;;
37275;SDS011;23166;51.150;21.620;2022-08-05T01:58:51;6.83;;;4.17;;
37275;SDS011;23166;51.150;21.620;2022-08-05T02:01:19;6.25;;;3.92;;
37275;SDS011;23166;51.150;21.620;2022-08-05T02:03:47;6.28;;;4.05;;
37275;SDS011;23166;51.150;21.620;2022-08-05T02:06:15;5.55;;;3.60;;
37275;SDS011;23166;51.150;21.620;2022-08-05T02:08:42;5.87;;;4.55;;
37275;SDS011;23166;51.150;21.620;2022-08-05T02:11:10;8.80;;;5.12;;
37275;SDS011;23166;51.150;21.620;2022-08-05T02:13:43;7.75;;;5.28;;
37275;SDS011;23166;51.150;21.620;2022-08-05T02:18:43;13.15;;;5.58;;
37275;SDS011;23166;51.150;21.620;2022-08-05T02:21:12;8.75;;;5.15;;
37275;SDS011;23166;51.150;21.620;2022-08-05T02:23:41;9.20;;;5.83;;
37275;SDS011;23166;51.150;21.620;2022-08-05T02:26:11;8.58;;;5.17;;
37275;SDS011;23166;51.150;21.620;2022-08-05T02:28:39;8.53;;;5.85;;
37275;SDS011;23166;51.150;21.620;2022-08-05T02:31:08;8.58;;;6.03;;
37275;SDS011;23166;51.150;21.620;2022-08-05T02:33:38;6.50;;;4.05;;
37275;SDS011;23166;51.150;21.620;2022-08-05T02:36:08;7.15;;;3.77;;
37275;SDS011;23166;51.150;21.620;2022-08-05T02:38:37;6.65;;;4.35;;
37275;SDS011;23166;51.150;21.620;2022-08-05T02:41:06;7.72;;;4.03;;
37275;SDS011;23166;51.150;21.620;2022-08-05T02:43:34;9.95;;;4.58;;
37275;SDS011;23166;51.150;21.620;2022-08-05T02:46:03;5.90;;;4.25;;
37275;SDS011;23166;51.150;21.620;2022-08-05T02:48:31;13.40;;;5.22;;
37275;SDS011;23166;51.150;21.620;2022-08-05T02:50:59;12.85;;;5.95;;
37275;SDS011;23166;51.150;21.620;2022-08-05T02:53:26;13.22;;;5.95;;
37275;SDS011;23166;51.150;21.620;2022-08-05T02:55:56;7.05;;;4.90;;
37275;SDS011;23166;51.150;21.620;2022-08-05T02:58:23;7.83;;;5.20;;
37275;SDS011;23166;51.150;21.620;2022-08-05T03:00:52;6.17;;;4.28;;
37275;SDS011;23166;51.150;21.620;2022-08-05T03:03:21;10.95;;;4.90;;
37275;SDS011;23166;51.150;21.620;2022-08-05T03:08:14;7.87;;;3.75;;
37275;SDS011;23166;51.150;21.620;2022-08-05T03:10:42;5.28;;;3.70;;
37275;SDS011;23166;51.150;21.620;2022-08-05T03:13:13;8.60;;;4.03;;
37275;SDS011;23166;51.150;21.620;2022-08-05T03:15:43;11.25;;;4.70;;
37275;SDS011;23166;51.150;21.620;2022-08-05T03:18:10;8.85;;;5.42;;
37275;SDS011;23166;51.150;21.620;2022-08-05T03:20:37;13.15;;;5.50;;
37275;SDS011;23166;51.150;21.620;2022-08-05T03:23:04;7.17;;;5.10;;
37275;SDS011;23166;51.150;21.620;2022-08-05T03:25:33;8.98;;;5.25;;
37275;SDS011;23166;51.150;21.620;2022-08-05T03:28:02;7.78;;;4.90;;
37275;SDS011;23166;51.150;21.620;2022-08-05T03:30:30;6.37;;;4.75;;
37275;SDS011;23166;51.150;21.620;2022-08-05T03:32:59;9.05;;;4.95;;
37275;SDS011;23166;51.150;21.620;2022-08-05T03:35:26;6.10;;;4.08;;
37275;SDS011;23166;51.150;21.620;2022-08-05T03:40:23;9.30;;;4.87;;
37275;SDS011;23166;51.150;21.620;2022-08-05T03:42:49;9.83;;;5.15;;
37275;SDS011;23166;51.150;21.620;2022-08-05T03:45:19;6.03;;;4.42;;
37275;SDS011;23166;51.150;21.620;2022-08-05T03:47:46;6.78;;;4.70;;
37275;SDS011;23166;51.150;21.620;2022-08-05T03:50:12;6.10;;;4.90;;
37275;SDS011;23166;51.150;21.620;2022-08-05T03:52:41;7.62;;;5.25;;
37275;SDS011;23166;51.150;21.620;2022-08-05T03:55:14;7.17;;;5.72;;
37275;SDS011;23166;51.150;21.620;2022-08-05T03:57:42;10.15;;;5.75;;
37275;SDS011;23166;51.150;21.620;2022-08-05T04:00:11;10.08;;;6.45;;
37275;SDS011;23166;51.150;21.620;2022-08-05T04:02:40;8.60;;;5.30;;
37275;SDS011;23166;51.150;21.620;2022-08-05T04:05:09;9.40;;;5.15;;
37275;SDS011;23166;51.150;21.620;2022-08-05T04:07:38;9.38;;;4.72;;
37275;SDS011;23166;51.150;21.620;2022-08-05T04:10:06;9.08;;;5.03;;
37275;SDS011;23166;51.150;21.620;2022-08-05T04:12:34;7.22;;;5.03;;
37275;SDS011;23166;51.150;21.620;2022-08-05T04:15:01;8.30;;;5.30;;
37275;SDS011;23166;51.150;21.620;2022-08-05T04:17:28;7.33;;;4.65;;
37275;SDS011;23166;51.150;21.620;2022-08-05T04:19:54;11.73;;;5.53;;
37275;SDS011;23166;51.150;21.620;2022-08-05T04:22:21;17.17;;;5.42;;
37275;SDS011;23166;51.150;21.620;2022-08-05T04:24:47;8.28;;;5.70;;
37275;SDS011;23166;51.150;21.620;2022-08-05T04:27:13;12.18;;;6.75;;
37275;SDS011;23166;51.150;21.620;2022-08-05T04:29:40;8.35;;;5.12;;
37275;SDS011;23166;51.150;21.620;2022-08-05T04:32:07;12.63;;;6.60;;
37275;SDS011;23166;51.150;21.620;2022-08-05T04:37:01;10.15;;;5.92;;
37275;SDS011;23166;51.150;21.620;2022-08-05T04:39:27;14.35;;;6.12;;
37275;SDS011;23166;51.150;21.620;2022-08-05T04:41:54;14.90;;;6.45;;
37275;SDS011;23166;51.150;21.620;2022-08-05T04:44:20;9.40;;;6.30;;
37275;SDS011;23166;51.150;21.620;2022-08-05T04:46:47;11.70;;;6.15;;
37275;SDS011;23166;51.150;21.620;2022-08-05T04:49:13;13.32;;;5.85;;
37275;SDS011;23166;51.150;21.620;2022-08-05T04:51:40;11.63;;;6.10;;
37275;SDS011;23166;51.150;21.620;2022-08-05T04:54:08;10.53;;;5.70;;
37275;SDS011;23166;51.150;21.620;2022-08-05T04:56:37;8.90;;;4.90;;
37275;SDS011;23166;51.150;21.620;2022-08-05T04:59:04;9.95;;;5.78;;
37275;SDS011;23166;51.150;21.620;2022-08-05T05:01:30;11.93;;;6.12;;
37275;SDS011;23166;51.150;21.620;2022-08-05T05:03:57;10.20;;;5.00;;
37275;SDS011;23166;51.150;21.620;2022-08-05T05:06:23;19.32;;;7.55;;
37275;SDS011;23166;51.150;21.620;2022-08-05T05:08:50;14.90;;;6.58;;
37275;SDS011;23166;51.150;21.620;2022-08-05T05:11:17;11.95;;;6.28;;
37275;SDS011;23166;51.150;21.620;2022-08-05T05:13:43;10.10;;;6.08;;
37275;SDS011;23166;51.150;21.620;2022-08-05T05:16:10;13.75;;;5.55;;
37275;SDS011;23166;51.150;21.620;2022-08-05T05:18:36;11.45;;;4.70;;
37275;SDS011;23166;51.150;21.620;2022-08-05T05:21:02;7.83;;;4.10;;
37275;SDS011;23166;51.150;21.620;2022-08-05T05:23:29;6.53;;;4.42;;
37275;SDS011;23166;51.150;21.620;2022-08-05T05:25:55;5.03;;;3.40;;
37275;SDS011;23166;51.150;21.620;2022-08-05T05:28:22;9.05;;;3.65;;
37275;SDS011;23166;51.150;21.620;2022-08-05T05:30:48;4.85;;;3.40;;
37275;SDS011;23166;51.150;21.620;2022-08-05T05:33:15;5.40;;;3.50;;
37275;SDS011;23166;51.150;21.620;2022-08-05T05:35:41;3.22;;;2.80;;
37275;SDS011;23166;51.150;21.620;2022-08-05T05:38:11;3.62;;;2.50;;
37275;SDS011;23166;51.150;21.620;2022-08-05T05:40:38;3.95;;;2.72;;
37275;SDS011;23166;51.150;21.620;2022-08-05T05:43:05;4.15;;;2.65;;
37275;SDS011;23166;51.150;21.620;2022-08-05T05:45:31;2.70;;;2.40;;
37275;SDS011;23166;51.150;21.620;2022-08-05T05:47:58;3.62;;;2.85;;
37275;SDS011;23166;51.150;21.620;2022-08-05T05:50:24;2.87;;;2.58;;
37275;SDS011;23166;51.150;21.620;2022-08-05T05:52:51;2.62;;;2.42;;
37275;SDS011;23166;51.150;21.620;2022-08-05T05:55:19;3.30;;;2.52;;
37275;SDS011;23166;51.150;21.620;2022-08-05T05:57:46;3.22;;;2.70;;
37275;SDS011;23166;51.150;21.620;2022-08-05T06:00:13;3.65;;;2.60;;
37275;SDS011;23166;51.150;21.620;2022-08-05T06:02:42;2.45;;;2.25;;
37275;SDS011;23166;51.150;21.620;2022-08-05T06:05:11;2.55;;;2.20;;
37275;SDS011;23166;51.150;21.620;2022-08-05T06:07:38;3.25;;;2.47;;
37275;SDS011;23166;51.150;21.620;2022-08-05T06:12:32;2.30;;;2.10;;
37275;SDS011;23166;51.150;21.620;2022-08-05T06:15:00;3.77;;;2.20;;
37275;SDS011;23166;51.150;21.620;2022-08-05T06:17:27;4.22;;;2.52;;
37275;SDS011;23166;51.150;21.620;2022-08-05T06:19:53;4.70;;;2.70;;
37275;SDS011;23166;51.150;21.620;2022-08-05T06:22:23;2.08;;;1.90;;
37275;SDS011;23166;51.150;21.620;2022-08-05T06:24:51;2.27;;;1.92;;
37275;SDS011;23166;51.150;21.620;2022-08-05T06:27:18;5.17;;;2.40;;
37275;SDS011;23166;51.150;21.620;2022-08-05T06:29:44;2.42;;;1.92;;
37275;SDS011;23166;51.150;21.620;2022-08-05T06:32:11;3.95;;;2.35;;
37275;SDS011;23166;51.150;21.620;2022-08-05T06:37:04;3.65;;;2.40;;
37275;SDS011;23166;51.150;21.620;2022-08-05T06:39:31;2.40;;;2.20;;
37275;SDS011;23166;51.150;21.620;2022-08-05T06:41:57;2.20;;;1.67;;
37275;SDS011;23166;51.150;21.620;2022-08-05T06:44:28;3.05;;;2.08;;
37275;SDS011;23166;51.150;21.620;2022-08-05T06:46:55;3.40;;;1.98;;
37275;SDS011;23166;51.150;21.620;2022-08-05T06:49:23;2.30;;;1.77;;
37275;SDS011;23166;51.150;21.620;2022-08-05T06:51:50;2.45;;;2.20;;
37275;SDS011;23166;51.150;21.620;2022-08-05T06:54:16;5.78;;;1.92;;
37275;SDS011;23166;51.150;21.620;2022-08-05T06:59:09;1.90;;;1.75;;
37275;SDS011;23166;51.150;21.620;2022-08-05T07:01:37;2.10;;;1.85;;
37275;SDS011;23166;51.150;21.620;2022-08-05T07:04:04;2.58;;;2.02;;
37275;SDS011;23166;51.150;21.620;2022-08-05T07:06:32;2.90;;;2.30;;
37275;SDS011;23166;51.150;21.620;2022-08-05T07:08:59;4.20;;;2.20;;
37275;SDS011;23166;51.150;21.620;2022-08-05T07:11:26;3.45;;;2.40;;
37275;SDS011;23166;51.150;21.620;2022-08-05T07:13:54;2.40;;;1.72;;
37275;SDS011;23166;51.150;21.620;2022-08-05T07:16:39;4.20;;;2.00;;
37275;SDS011;23166;51.150;21.620;2022-08-05T07:19:19;2.85;;;2.30;;
37275;SDS011;23166;51.150;21.620;2022-08-05T07:21:47;2.85;;;1.95;;
37275;SDS011;23166;51.150;21.620;2022-08-05T07:24:14;5.20;;;2.47;;
37275;SDS011;23166;51.150;21.620;2022-08-05T07:26:42;3.62;;;2.10;;
37275;SDS011;23166;51.150;21.620;2022-08-05T07:29:09;2.45;;;2.22;;
37275;SDS011;23166;51.150;21.620;2022-08-05T07:34:03;7.97;;;2.00;;
37275;SDS011;23166;51.150;21.620;2022-08-05T07:36:31;5.08;;;2.50;;
37275;SDS011;23166;51.150;21.620;2022-08-05T07:38:58;2.15;;;1.77;;
37275;SDS011;23166;51.150;21.620;2022-08-05T07:41:26;2.50;;;2.30;;
37275;SDS011;23166;51.150;21.620;2022-08-05T07:43:53;6.85;;;2.58;;
37275;SDS011;23166;51.150;21.620;2022-08-05T07:46:20;3.45;;;1.95;;
37275;SDS011;23166;51.150;21.620;2022-08-05T07:48:47;5.00;;;2.30;;
37275;SDS011;23166;51.150;21.620;2022-08-05T07:51:13;5.05;;;2.17;;
37275;SDS011;23166;51.150;21.620;2022-08-05T07:53:41;3.12;;;2.42;;
37275;SDS011;23166;51.150;21.620;2022-08-05T07:56:07;2.62;;;2.33;;
37275;SDS011;23166;51.150;21.620;2022-08-05T07:58:34;3.37;;;1.87;;
37275;SDS011;23166;51.150;21.620;2022-08-05T08:01:00;2.87;;;2.10;;
37275;SDS011;23166;51.150;21.620;2022-08-05T08:03:27;4.72;;;2.20;;
37275;SDS011;23166;51.150;21.620;2022-08-05T08:05:53;3.70;;;2.35;;
37275;SDS011;23166;51.150;21.620;2022-08-05T08:08:19;1.87;;;1.77;;
37275;SDS011;23166;51.150;21.620;2022-08-05T08:10:46;2.30;;;2.10;;
37275;SDS011;23166;51.150;21.620;2022-08-05T08:13:12;2.52;;;2.08;;
37275;SDS011;23166;51.150;21.620;2022-08-05T08:15:39;4.05;;;2.33;;
37275;SDS011;23166;51.150;21.620;2022-08-05T08:18:05;2.95;;;2.02;;
37275;SDS011;23166;51.150;21.620;2022-08-05T08:20:32;8.85;;;2.12;;
37275;SDS011;23166;51.150;21.620;2022-08-05T08:22:59;2.58;;;2.27;;
37275;SDS011;23166;51.150;21.620;2022-08-05T08:25:27;5.00;;;2.60;;
37275;SDS011;23166;51.150;21.620;2022-08-05T08:27:54;2.90;;;1.80;;
37275;SDS011;23166;51.150;21.620;2022-08-05T08:30:20;2.40;;;2.20;;
37275;SDS011;23166;51.150;21.620;2022-08-05T08:35:13;2.45;;;2.15;;
37275;SDS011;23166;51.150;21.620;2022-08-05T08:40:06;2.80;;;2.12;;
37275;SDS011;23166;51.150;21.620;2022-08-05T08:42:33;7.53;;;2.40;;
37275;SDS011;23166;51.150;21.620;2022-08-05T08:45:00;2.55;;;2.00;;
37275;SDS011;23166;51.150;21.620;2022-08-05T08:47:28;4.58;;;2.42;;
37275;SDS011;23166;51.150;21.620;2022-08-05T08:49:56;5.58;;;2.30;;
37275;SDS011;23166;51.150;21.620;2022-08-05T08:52:28;2.37;;;2.12;;
37275;SDS011;23166;51.150;21.620;2022-08-05T08:54:56;1.70;;;1.60;;
37275;SDS011;23166;51.150;21.620;2022-08-05T08:57:23;2.30;;;2.10;;
37275;SDS011;23166;51.150;21.620;2022-08-05T09:04:44;2.27;;;2.08;;
37275;SDS011;23166;51.150;21.620;2022-08-05T09:07:11;5.92;;;2.52;;
37275;SDS011;23166;51.150;21.620;2022-08-05T09:09:38;2.65;;;2.15;;
37275;SDS011;23166;51.150;21.620;2022-08-05T09:12:08;2.37;;;2.17;;
37275;SDS011;23166;51.150;21.620;2022-08-05T09:14:35;3.55;;;2.15;;
37275;SDS011;23166;51.150;21.620;2022-08-05T09:17:04;3.12;;;2.17;;
37275;SDS011;23166;51.150;21.620;2022-08-05T09:19:32;2.72;;;2.52;;
37275;SDS011;23166;51.150;21.620;2022-08-05T09:21:58;3.33;;;2.20;;
37275;SDS011;23166;51.150;21.620;2022-08-05T09:24:25;4.42;;;2.70;;
37275;SDS011;23166;51.150;21.620;2022-08-05T09:26:52;3.00;;;2.10;;
37275;SDS011;23166;51.150;21.620;2022-08-05T09:29:21;11.18;;;2.67;;
37275;SDS011;23166;51.150;21.620;2022-08-05T09:32:04;4.65;;;2.20;;
37275;SDS011;23166;51.150;21.620;2022-08-05T09:37:20;6.30;;;2.12;;
37275;SDS011;23166;51.150;21.620;2022-08-05T09:39:48;3.50;;;2.17;;
37275;SDS011;23166;51.150;21.620;2022-08-05T09:42:18;2.50;;;2.27;;
37275;SDS011;23166;51.150;21.620;2022-08-05T09:44:46;4.62;;;3.52;;
37275;SDS011;23166;51.150;21.620;2022-08-05T09:47:20;2.55;;;2.17;;
37275;SDS011;23166;51.150;21.620;2022-08-05T09:49:45;3.83;;;2.47;;
37275;SDS011;23166;51.150;21.620;2022-08-05T09:52:29;2.72;;;2.20;;
37275;SDS011;23166;51.150;21.620;2022-08-05T09:55:07;4.28;;;2.27;;
37275;SDS011;23166;51.150;21.620;2022-08-05T09:57:39;2.85;;;2.35;;
37275;SDS011;23166;51.150;21.620;2022-08-05T10:02:42;3.67;;;2.42;;
37275;SDS011;23166;51.150;21.620;2022-08-05T10:05:16;5.67;;;2.30;;
37275;SDS011;23166;51.150;21.620;2022-08-05T10:07:54;6.97;;;2.72;;
37275;SDS011;23166;51.150;21.620;2022-08-05T10:10:18;7.53;;;2.50;;
37275;SDS011;23166;51.150;21.620;2022-08-05T10:12:51;4.78;;;2.45;;
37275;SDS011;23166;51.150;21.620;2022-08-05T10:15:21;5.65;;;2.72;;
37275;SDS011;23166;51.150;21.620;2022-08-05T10:21:06;2.47;;;2.10;;
37275;SDS011;23166;51.150;21.620;2022-08-05T10:23:34;5.05;;;2.95;;
37275;SDS011;23166;51.150;21.620;2022-08-05T10:26:05;3.12;;;2.55;;
37275;SDS011;23166;51.150;21.620;2022-08-05T10:28:34;2.98;;;2.42;;
37275;SDS011;23166;51.150;21.620;2022-08-05T10:31:01;3.55;;;2.40;;
37275;SDS011;23166;51.150;21.620;2022-08-05T10:35:56;5.08;;;2.50;;
37275;SDS011;23166;51.150;21.620;2022-08-05T10:38:24;3.67;;;2.35;;
37275;SDS011;23166;51.150;21.620;2022-08-05T10:41:02;3.02;;;2.47;;
37275;SDS011;23166;51.150;21.620;2022-08-05T10:46:16;3.40;;;2.30;;
37275;SDS011;23166;51.150;21.620;2022-08-05T10:48:47;4.15;;;2.65;;
37275;SDS011;23166;51.150;21.620;2022-08-05T10:51:18;3.05;;;2.40;;
37275;SDS011;23166;51.150;21.620;2022-08-05T10:53:58;2.60;;;2.40;;
37275;SDS011;23166;51.150;21.620;2022-08-05T10:56:28;4.22;;;2.65;;
37275;SDS011;23166;51.150;21.620;2022-08-05T11:01:30;3.10;;;2.50;;
37275;SDS011;23166;51.150;21.620;2022-08-05T11:04:08;2.87;;;2.25;;
37275;SDS011;23166;51.150;21.620;2022-08-05T11:09:37;5.42;;;2.72;;
37275;SDS011;23166;51.150;21.620;2022-08-05T11:39:06;3.10;;;2.45;;
37275;SDS011;23166;51.150;21.620;2022-08-05T11:41:33;3.10;;;2.75;;
37275;SDS011;23166;51.150;21.620;2022-08-05T11:44:02;3.98;;;2.55;;
37275;SDS011;23166;51.150;21.620;2022-08-05T11:46:47;4.17;;;3.00;;
37275;SDS011;23166;51.150;21.620;2022-08-05T11:49:16;14.80;;;3.08;;
37275;SDS011;23166;51.150;21.620;2022-08-05T11:51:45;4.47;;;2.90;;
37275;SDS011;23166;51.150;21.620;2022-08-05T11:54:34;3.10;;;2.42;;
37275;SDS011;23166;51.150;21.620;2022-08-05T11:56:55;3.52;;;2.40;;
37275;SDS011;23166;51.150;21.620;2022-08-05T11:59:23;5.55;;;2.77;;
37275;SDS011;23166;51.150;21.620;2022-08-05T12:01:57;4.05;;;2.67;;
37275;SDS011;23166;51.150;21.620;2022-08-05T12:07:16;4.28;;;2.85;;
37275;SDS011;23166;51.150;21.620;2022-08-05T12:09:46;2.60;;;2.40;;
37275;SDS011;23166;51.150;21.620;2022-08-05T12:12:12;4.03;;;2.30;;
37275;SDS011;23166;51.150;21.620;2022-08-05T12:14:48;3.60;;;2.35;;
37275;SDS011;23166;51.150;21.620;2022-08-05T12:17:15;2.75;;;2.42;;
37275;SDS011;23166;51.150;21.620;2022-08-05T12:22:12;3.50;;;2.33;;
37275;SDS011;23166;51.150;21.620;2022-08-05T12:24:44;3.22;;;2.90;;
37275;SDS011;23166;51.150;21.620;2022-08-05T12:27:22;3.85;;;2.75;;
37275;SDS011;23166;51.150;21.620;2022-08-05T12:30:03;4.20;;;3.40;;
37275;SDS011;23166;51.150;21.620;2022-08-05T12:32:31;3.37;;;2.85;;
37275;SDS011;23166;51.150;21.620;2022-08-05T12:35:01;4.80;;;2.70;;
37275;SDS011;23166;51.150;21.620;2022-08-05T12:37:28;4.80;;;3.00;;
37275;SDS011;23166;51.150;21.620;2022-08-05T12:42:22;3.42;;;2.45;;
37275;SDS011;23166;51.150;21.620;2022-08-05T12:47:27;3.50;;;2.47;;
37275;SDS011;23166;51.150;21.620;2022-08-05T12:49:55;2.52;;;2.33;;
37275;SDS011;23166;51.150;21.620;2022-08-05T12:52:21;4.15;;;2.95;;
37275;SDS011;23166;51.150;21.620;2022-08-05T12:57:15;2.98;;;2.67;;
37275;SDS011;23166;51.150;21.620;2022-08-05T12:59:43;4.80;;;3.17;;
37275;SDS011;23166;51.150;21.620;2022-08-05T13:02:21;3.52;;;2.80;;
37275;SDS011;23166;51.150;21.620;2022-08-05T13:04:50;3.40;;;2.47;;
37275;SDS011;23166;51.150;21.620;2022-08-05T13:07:18;4.45;;;3.00;;
37275;SDS011;23166;51.150;21.620;2022-08-05T13:09:48;9.23;;;2.65;;
37275;SDS011;23166;51.150;21.620;2022-08-05T13:12:22;2.90;;;2.33;;
37275;SDS011;23166;51.150;21.620;2022-08-05T13:14:54;3.12;;;2.83;;
37275;SDS011;23166;51.150;21.620;2022-08-05T13:17:24;5.15;;;2.50;;
37275;SDS011;23166;51.150;21.620;2022-08-05T13:22:38;3.40;;;3.10;;
37275;SDS011;23166;51.150;21.620;2022-08-05T13:25:08;2.90;;;2.35;;
37275;SDS011;23166;51.150;21.620;2022-08-05T13:27:49;3.30;;;2.67;;
37275;SDS011;23166;51.150;21.620;2022-08-05T13:30:18;5.62;;;2.90;;
37275;SDS011;23166;51.150;21.620;2022-08-05T13:32:47;3.45;;;3.08;;
37275;SDS011;23166;51.150;21.620;2022-08-05T13:37:40;3.12;;;2.30;;
37275;SDS011;23166;51.150;21.620;2022-08-05T13:40:07;4.78;;;3.10;;
37275;SDS011;23166;51.150;21.620;2022-08-05T13:42:34;2.90;;;2.30;;
37275;SDS011;23166;51.150;21.620;2022-08-05T13:45:01;8.15;;;3.22;;
37275;SDS011;23166;51.150;21.620;2022-08-05T13:47:28;2.85;;;2.30;;
37275;SDS011;23166;51.150;21.620;2022-08-05T13:49:55;2.98;;;2.60;;
37275;SDS011;23166;51.150;21.620;2022-08-05T13:52:22;3.67;;;2.45;;
37275;SDS011;23166;51.150;21.620;2022-08-05T13:54:54;2.80;;;2.42;;
37275;SDS011;23166;51.150;21.620;2022-08-05T13:57:21;3.35;;;2.35;;
37275;SDS011;23166;51.150;21.620;2022-08-05T13:59:48;4.83;;;2.30;;
37275;SDS011;23166;51.150;21.620;2022-08-05T14:02:14;2.55;;;2.35;;
37275;SDS011;23166;51.150;21.620;2022-08-05T14:04:42;3.22;;;2.70;;
37275;SDS011;23166;51.150;21.620;2022-08-05T14:07:29;5.05;;;2.40;;
37275;SDS011;23166;51.150;21.620;2022-08-05T14:09:57;4.72;;;2.87;;
37275;SDS011;23166;51.150;21.620;2022-08-05T14:12:23;3.30;;;2.30;;
37275;SDS011;23166;51.150;21.620;2022-08-05T14:14:50;2.65;;;2.45;;
37275;SDS011;23166;51.150;21.620;2022-08-05T14:17:17;15.15;;;2.55;;
37275;SDS011;23166;51.150;21.620;2022-08-05T14:19:44;2.80;;;2.50;;
37275;SDS011;23166;51.150;21.620;2022-08-05T14:22:11;3.65;;;2.62;;
37275;SDS011;23166;51.150;21.620;2022-08-05T14:24:37;4.25;;;2.50;;
37275;SDS011;23166;51.150;21.620;2022-08-05T14:27:05;3.67;;;2.12;;
37275;SDS011;23166;51.150;21.620;2022-08-05T14:29:32;2.87;;;2.33;;
37275;SDS011;23166;51.150;21.620;2022-08-05T14:31:59;2.95;;;2.65;;
37275;SDS011;23166;51.150;21.620;2022-08-05T14:34:25;2.37;;;2.17;;
37275;SDS011;23166;51.150;21.620;2022-08-05T14:36:52;3.75;;;2.50;;
37275;SDS011;23166;51.150;21.620;2022-08-05T14:39:18;2.47;;;2.15;;
37275;SDS011;23166;51.150;21.620;2022-08-05T14:41:45;3.22;;;2.42;;
37275;SDS011;23166;51.150;21.620;2022-08-05T14:44:11;3.20;;;2.70;;
37275;SDS011;23166;51.150;21.620;2022-08-05T14:46:38;2.35;;;1.87;;
37275;SDS011;23166;51.150;21.620;2022-08-05T14:49:04;2.33;;;2.12;;
37275;SDS011;23166;51.150;21.620;2022-08-05T14:51:31;2.60;;;1.98;;
37275;SDS011;23166;51.150;21.620;2022-08-05T14:53:58;5.58;;;2.17;;
37275;SDS011;23166;51.150;21.620;2022-08-05T14:56:25;2.37;;;2.17;;
37275;SDS011;23166;51.150;21.620;2022-08-05T15:01:17;4.17;;;2.50;;
37275;SDS011;23166;51.150;21.620;2022-08-05T15:03:44;2.80;;;2.40;;
37275;SDS011;23166;51.150;21.620;2022-08-05T15:06:11;5.15;;;2.40;;
37275;SDS011;23166;51.150;21.620;2022-08-05T15:08:37;2.72;;;2.40;;
37275;SDS011;23166;51.150;21.620;2022-08-05T15:11:04;2.92;;;2.17;;
37275;SDS011;23166;51.150;21.620;2022-08-05T15:13:32;3.95;;;2.10;;
37275;SDS011;23166;51.150;21.620;2022-08-05T15:15:59;4.53;;;2.30;;
37275;SDS011;23166;51.150;21.620;2022-08-05T15:18:26;4.47;;;2.45;;
37275;SDS011;23166;51.150;21.620;2022-08-05T15:23:19;5.05;;;2.02;;
37275;SDS011;23166;51.150;21.620;2022-08-05T15:25:45;2.83;;;2.33;;
37275;SDS011;23166;51.150;21.620;2022-08-05T15:28:12;3.17;;;2.33;;
37275;SDS011;23166;51.150;21.620;2022-08-05T15:30:39;4.17;;;2.17;;
37275;SDS011;23166;51.150;21.620;2022-08-05T15:33:06;6.53;;;2.50;;
37275;SDS011;23166;51.150;21.620;2022-08-05T15:35:32;2.33;;;2.10;;
37275;SDS011;23166;51.150;21.620;2022-08-05T15:40:25;6.83;;;2.25;;
37275;SDS011;23166;51.150;21.620;2022-08-05T15:42:52;2.55;;;2.33;;
37275;SDS011;23166;51.150;21.620;2022-08-05T15:50:12;2.08;;;1.87;;
37275;SDS011;23166;51.150;21.620;2022-08-05T15:52:39;2.02;;;1.82;;
37275;SDS011;23166;51.150;21.620;2022-08-05T15:57:33;4.72;;;2.20;;
37275;SDS011;23166;51.150;21.620;2022-08-05T16:00:00;2.83;;;2.50;;
37275;SDS011;23166;51.150;21.620;2022-08-05T16:02:28;4.58;;;2.00;;
37275;SDS011;23166;51.150;21.620;2022-08-05T16:05:06;2.95;;;2.35;;
37275;SDS011;23166;51.150;21.620;2022-08-05T16:07:33;3.33;;;2.17;;
37275;SDS011;23166;51.150;21.620;2022-08-05T16:12:25;2.45;;;1.92;;
37275;SDS011;23166;51.150;21.620;2022-08-05T16:17:18;2.45;;;2.05;;
37275;SDS011;23166;51.150;21.620;2022-08-05T16:22:11;6.17;;;2.80;;
37275;SDS011;23166;51.150;21.620;2022-08-05T16:29:30;2.65;;;2.35;;
37275;SDS011;23166;51.150;21.620;2022-08-05T16:31:57;4.08;;;2.15;;
37275;SDS011;23166;51.150;21.620;2022-08-05T16:34:24;2.02;;;1.82;;
37275;SDS011;23166;51.150;21.620;2022-08-05T16:36:51;2.90;;;2.00;;
37275;SDS011;23166;51.150;21.620;2022-08-05T16:39:18;2.72;;;2.05;;
37275;SDS011;23166;51.150;21.620;2022-08-05T16:41:45;2.15;;;1.95;;
37275;SDS011;23166;51.150;21.620;2022-08-05T16:46:39;4.03;;;2.05;;
37275;SDS011;23166;51.150;21.620;2022-08-05T16:49:06;3.85;;;1.55;;
37275;SDS011;23166;51.150;21.620;2022-08-05T16:51:33;2.22;;;1.98;;